Aviation Digital Data Service (ADDS)

Output produced by METARs form (1523 UTC 26 April 2018)
found at http://aviationweather.gov/adds/metars/
 
METAR text: KEDU 261515Z AUTO 00000KT 10SM CLR 11/08 A2998 RMK AO1
Conditions at: KEDU (DAVIS , CA, US) observed 1515 UTC 26 April 2018
Temperature: 11.0°C (52°F)
Dewpoint: 8.0°C (46°F) [RH = 82%]
Pressure (altimeter): 29.98 inches Hg (1015.3 mb)
Winds: calm
Visibility: 10 or more miles (16+ km)
Ceiling: at least 12,000 feet AGL
Clouds: sky clear below 12,000 feet AGL
Weather: automated observation with no human augmentation;
there may or may not be significant weather present at this time